Time;durP1;ratioP1;P1;durP2;ratioP2;P2;SDS_P1;SDS_P2;PMS_P1;PMS_P2;Temp;Humidity;BMP_temperature;BMP_pressure;BME280_temperature;BME280_humidity;BME280_pressure;Samples;Min_cycle;Max_cycle;Signal;HPM_P1;HPM_P2
2022/09/28 00:00:57;;;;;;;1.95;0.80;;;21.00;44.20;;;;;;5046760;28;20025;-54
2022/09/28 00:03:23;;;;;;;2.20;0.82;;;21.00;44.20;;;;;;5036823;28;20329;-51
2022/09/28 00:05:49;;;;;;;1.45;0.70;;;20.90;44.70;;;;;;5036014;28;20348;-51
2022/09/28 00:08:15;;;;;;;1.30;0.75;;;21.00;44.20;;;;;;5041769;28;20033;-48
2022/09/28 00:10:42;;;;;;;1.23;0.65;;;21.00;44.20;;;;;;5054334;28;20082;-52
2022/09/28 00:13:08;;;;;;;1.70;0.80;;;20.90;44.10;;;;;;5054495;28;20123;-52
2022/09/28 00:15:34;;;;;;;1.17;0.73;;;20.90;44.20;;;;;;5038757;28;20052;-55
2022/09/28 00:18:00;;;;;;;1.77;0.93;;;20.90;44.10;;;;;;5050283;28;20467;-55
2022/09/28 00:20:26;;;;;;;1.85;0.77;;;20.90;44.20;;;;;;5054277;28;20056;-51
2022/09/28 00:22:52;;;;;;;2.13;0.80;;;21.00;44.30;;;;;;5027080;28;20041;-55
2022/09/28 00:25:20;;;;;;;1.55;0.88;;;20.90;44.20;;;;;;5049519;28;20102;-53
2022/09/28 00:27:50;;;;;;;1.05;0.70;;;20.90;44.20;;;;;;5046328;28;20094;-54
2022/09/28 00:30:16;;;;;;;1.10;0.60;;;20.90;44.30;;;;;;5050751;28;20108;-52
2022/09/28 00:32:42;;;;;;;1.33;0.73;;;20.90;44.30;;;;;;5050016;28;20045;-52
2022/09/28 00:35:08;;;;;;;2.45;1.02;;;21.00;44.30;;;;;;5048831;28;20452;-55
2022/09/28 00:37:34;;;;;;;1.98;0.90;;;20.90;44.30;;;;;;5053891;28;20466;-51
2022/09/28 00:40:00;;;;;;;2.17;0.82;;;20.90;44.30;;;;;;5054278;28;20029;-53
2022/09/28 00:42:26;;;;;;;1.33;0.70;;;20.90;44.20;;;;;;5053287;28;20072;-51
2022/09/28 00:44:56;;;;;;;1.50;0.75;;;20.90;44.20;;;;;;5054014;28;20052;-53
2022/09/28 00:47:22;;;;;;;1.20;0.80;;;20.90;44.20;;;;;;5069675;28;20043;-54
2022/09/28 00:50:04;;;;;;;1.15;0.70;;;20.90;44.20;;;;;;5054443;28;20041;-53
2022/09/28 00:52:44;;;;;;;1.27;0.70;;;20.90;44.20;;;;;;5040819;28;20039;-53
2022/09/28 00:55:15;;;;;;;1.30;0.85;;;20.90;44.10;;;;;;5050150;28;20692;-52
2022/09/28 00:57:47;;;;;;;1.10;0.70;;;20.90;44.10;;;;;;5054132;28;20032;-51
2022/09/28 01:00:14;;;;;;;1.38;0.65;;;20.90;44.10;;;;;;5050145;28;20036;-51
2022/09/28 01:02:40;;;;;;;1.08;0.82;;;20.90;44.10;;;;;;5046820;28;20033;-54
2022/09/28 01:05:09;;;;;;;1.58;0.75;;;20.90;44.10;;;;;;5043566;28;20334;-51
2022/09/28 01:07:36;;;;;;;2.17;1.05;;;20.90;44.10;;;;;;5047975;28;20041;-55
2022/09/28 01:10:03;;;;;;;1.20;0.75;;;20.90;44.10;;;;;;5049378;28;20783;-52
2022/09/28 01:12:29;;;;;;;1.52;0.80;;;20.90;44.10;;;;;;5052494;28;20033;-52
2022/09/28 01:14:57;;;;;;;1.08;0.70;;;20.80;44.00;;;;;;5049748;28;20017;-56
2022/09/28 01:17:40;;;;;;;1.30;0.70;;;20.80;44.10;;;;;;5053213;28;20035;-54
2022/09/28 01:20:50;;;;;;;1.35;0.80;;;20.80;44.00;;;;;;5030354;28;20398;-55
2022/09/28 01:23:27;;;;;;;1.33;0.80;;;20.90;44.10;;;;;;5011886;28;20128;-55
2022/09/28 01:26:12;;;;;;;1.27;0.93;;;20.90;44.10;;;;;;5043709;28;20064;-52
2022/09/28 01:28:42;;;;;;;1.65;0.63;;;20.80;44.00;;;;;;5049573;28;20037;-55
2022/09/28 01:31:13;;;;;;;1.50;0.80;;;20.80;44.10;;;;;;5049668;28;20022;-52
2022/09/28 01:33:53;;;;;;;1.88;0.90;;;20.80;44.10;;;;;;5045913;28;20033;-49
2022/09/28 01:36:33;;;;;;;1.63;0.80;;;20.80;44.10;;;;;;5040874;28;20045;-51
2022/09/28 01:39:13;;;;;;;1.98;0.93;;;20.80;44.10;;;;;;5054651;28;20035;-53
2022/09/28 01:41:43;;;;;;;1.52;0.90;;;20.80;44.10;;;;;;5051246;28;20570;-54
2022/09/28 01:44:13;;;;;;;1.52;0.75;;;20.80;44.10;;;;;;5050069;28;20124;-52
2022/09/28 01:46:43;;;;;;;1.00;0.77;;;20.80;44.10;;;;;;5049340;28;20040;-51
2022/09/28 01:49:26;;;;;;;2.72;1.15;;;20.80;44.10;;;;;;5050887;28;20124;-50
2022/09/28 01:52:01;;;;;;;1.60;0.80;;;20.80;44.10;;;;;;5018003;28;20120;-52
2022/09/28 01:54:30;;;;;;;1.63;0.82;;;20.80;44.10;;;;;;5044220;28;20032;-51
2022/09/28 01:57:14;;;;;;;1.85;1.23;;;20.80;44.10;;;;;;5050169;28;20059;-52
2022/09/28 01:59:46;;;;;;;1.42;0.90;;;20.80;44.10;;;;;;5049011;28;20184;-53
2022/09/28 02:02:21;;;;;;;1.10;0.80;;;20.80;44.10;;;;;;5043198;28;20025;-51
2022/09/28 02:04:56;;;;;;;1.33;0.68;;;20.80;44.10;;;;;;5032992;28;20318;-52
2022/09/28 02:07:47;;;;;;;1.75;1.13;;;20.80;44.10;;;;;;5043357;28;20025;-51
2022/09/28 02:10:18;;;;;;;1.63;0.88;;;20.70;44.10;;;;;;5033943;28;20441;-54
2022/09/28 02:13:03;;;;;;;1.85;1.00;;;20.70;44.10;;;;;;5038524;28;20030;-55
2022/09/28 02:15:35;;;;;;;1.35;0.93;;;20.70;44.10;;;;;;5066891;28;20099;-55
2022/09/28 02:18:02;;;;;;;1.48;0.82;;;20.70;44.10;;;;;;5045385;28;20034;-52
2022/09/28 02:20:30;;;;;;;1.75;1.10;;;20.70;44.10;;;;;;5036886;28;20025;-51
2022/09/28 02:23:00;;;;;;;1.00;0.90;;;20.80;44.20;;;;;;5042072;28;20033;-55
2022/09/28 02:25:32;;;;;;;1.35;0.88;;;20.70;44.10;;;;;;5033052;28;20034;-52
2022/09/28 02:27:58;;;;;;;1.50;0.80;;;20.70;44.10;;;;;;5027154;28;20364;-56
2022/09/28 02:30:28;;;;;;;2.03;1.27;;;20.70;44.10;;;;;;5033429;28;20034;-53
2022/09/28 02:32:59;;;;;;;1.58;0.90;;;20.70;44.10;;;;;;5063358;28;20032;-49
2022/09/28 02:35:25;;;;;;;1.17;0.85;;;20.70;44.10;;;;;;5046256;28;20048;-53
2022/09/28 02:37:51;;;;;;;1.88;0.95;;;20.70;44.10;;;;;;5049651;28;20033;-49
2022/09/28 02:40:27;;;;;;;2.70;1.05;;;20.70;44.10;;;;;;5048380;28;20033;-50
2022/09/28 02:43:15;;;;;;;2.03;1.15;;;20.70;44.10;;;;;;5051429;28;20044;-51
2022/09/28 02:45:41;;;;;;;1.98;1.13;;;20.70;44.10;;;;;;5036355;28;20040;-50
2022/09/28 02:48:22;;;;;;;2.08;1.27;;;20.70;44.10;;;;;;5049726;28;20364;-50
2022/09/28 02:50:58;;;;;;;2.05;1.00;;;20.70;44.20;;;;;;5051007;28;20029;-54
2022/09/28 02:53:36;;;;;;;1.65;1.30;;;20.70;44.20;;;;;;5037411;28;20126;-51
2022/09/28 02:56:20;;;;;;;1.83;1.10;;;20.70;44.30;;;;;;5049646;28;20052;-52
2022/09/28 02:58:57;;;;;;;1.98;1.20;;;20.70;44.30;;;;;;5049436;28;20423;-52
2022/09/28 03:01:59;;;;;;;1.70;1.08;;;20.70;44.30;;;;;;5051033;28;20044;-55
2022/09/28 03:04:32;;;;;;;2.33;1.30;;;20.70;44.30;;;;;;5048581;28;20140;-52
2022/09/28 03:07:17;;;;;;;1.97;1.13;;;20.70;44.30;;;;;;5036863;28;20033;-50
2022/09/28 03:09:50;;;;;;;1.73;1.10;;;20.70;44.30;;;;;;5038390;28;20299;-51
2022/09/28 03:12:19;;;;;;;1.35;0.93;;;20.60;44.30;;;;;;5029443;28;20109;-48
2022/09/28 03:14:45;;;;;;;1.52;1.05;;;20.70;44.40;;;;;;5032926;28;20026;-52
2022/09/28 03:17:12;;;;;;;1.30;1.00;;;20.70;44.40;;;;;;5039362;28;20044;-52
2022/09/28 03:19:38;;;;;;;2.08;1.20;;;20.60;44.30;;;;;;5046073;28;20018;-58
2022/09/28 03:22:04;;;;;;;1.55;1.00;;;20.70;44.40;;;;;;5050531;28;20033;-49
2022/09/28 03:24:30;;;;;;;1.60;1.08;;;20.70;44.40;;;;;;5041829;28;20528;-53
2022/09/28 03:26:56;;;;;;;1.88;0.80;;;20.60;44.40;;;;;;5052813;28;20786;-50
2022/09/28 03:29:22;;;;;;;2.25;1.20;;;20.60;44.40;;;;;;5047990;28;20017;-54
2022/09/28 03:31:54;;;;;;;1.58;0.80;;;20.60;44.40;;;;;;5050886;28;20468;-50
2022/09/28 03:34:20;;;;;;;2.03;0.90;;;20.70;44.50;;;;;;5037038;28;20024;-52
2022/09/28 03:36:45;;;;;;;1.05;0.80;;;20.60;44.40;;;;;;5044045;28;20059;-51
2022/09/28 03:39:11;;;;;;;1.83;0.88;;;20.60;44.40;;;;;;5043337;28;20029;-51
2022/09/28 03:41:37;;;;;;;2.55;1.00;;;20.60;44.40;;;;;;5054154;28;20029;-52
2022/09/28 03:44:03;;;;;;;2.15;0.93;;;20.60;44.40;;;;;;5056619;28;20136;-52
2022/09/28 03:46:31;;;;;;;1.13;0.80;;;20.60;44.40;;;;;;5048000;28;20057;-52
2022/09/28 03:49:02;;;;;;;1.25;1.00;;;20.60;44.40;;;;;;5051505;28;20025;-50
2022/09/28 03:51:28;;;;;;;2.33;1.10;;;20.60;44.40;;;;;;5050725;28;20037;-51
2022/09/28 03:53:54;;;;;;;2.13;0.80;;;20.60;44.40;;;;;;5031679;28;20041;-51
2022/09/28 03:56:20;;;;;;;1.75;0.80;;;20.60;44.40;;;;;;5049972;28;20391;-51
2022/09/28 03:58:46;;;;;;;0.80;0.70;;;20.60;44.40;;;;;;5048537;28;20123;-53
2022/09/28 04:01:14;;;;;;;1.50;0.75;;;20.60;44.40;;;;;;5054003;28;20044;-54
2022/09/28 04:03:41;;;;;;;1.27;0.90;;;20.60;44.40;;;;;;5043544;28;20456;-52
2022/09/28 04:06:07;;;;;;;0.88;0.68;;;20.60;44.40;;;;;;5040333;28;20057;-53
2022/09/28 04:08:34;;;;;;;1.33;1.00;;;20.60;44.40;;;;;;5052583;28;20033;-53
2022/09/28 04:11:00;;;;;;;1.55;0.65;;;20.60;44.40;;;;;;5051353;28;20040;-55
2022/09/28 04:13:27;;;;;;;1.65;0.90;;;20.60;44.40;;;;;;5047079;28;20045;-55
2022/09/28 04:15:56;;;;;;;1.50;0.80;;;20.60;44.40;;;;;;5043354;28;20531;-55
2022/09/28 04:18:22;;;;;;;2.13;0.90;;;20.60;44.30;;;;;;5037255;28;20044;-55
2022/09/28 04:21:09;;;;;;;;;;;20.60;44.40;;;;;;5037638;28;20033;-52
2022/09/28 04:23:48;;;;;;;2.10;0.60;;;20.60;44.30;;;;;;5038951;28;20004;-53
2022/09/28 04:26:25;;;;;;;1.95;0.90;;;20.50;44.30;;;;;;5038662;28;20106;-53
2022/09/28 04:31:52;;;;;;;1.27;0.77;;;20.50;44.30;;;;;;5051287;28;20359;-53
2022/09/28 04:34:21;;;;;;;0.90;0.80;;;20.50;44.30;;;;;;5048492;28;20391;-55
2022/09/28 04:36:48;;;;;;;0.95;0.63;;;20.50;44.30;;;;;;5059435;28;20025;-51
2022/09/28 04:39:16;;;;;;;1.10;0.50;;;20.50;44.30;;;;;;5034220;28;20042;-49
2022/09/28 04:41:47;;;;;;;0.95;0.63;;;20.50;44.30;;;;;;5045806;28;20021;-50
2022/09/28 04:44:13;;;;;;;0.80;0.50;;;20.50;44.30;;;;;;5052139;28;20044;-51
2022/09/28 04:46:39;;;;;;;0.88;0.70;;;20.50;44.30;;;;;;5046056;28;20026;-52
2022/09/28 04:49:24;;;;;;;0.88;0.60;;;20.50;44.20;;;;;;5056655;28;20079;-53
2022/09/28 04:51:55;;;;;;;0.57;0.57;;;20.50;44.10;;;;;;5047104;28;20092;-51
2022/09/28 04:54:21;;;;;;;0.90;0.60;;;20.50;44.10;;;;;;5048844;28;20033;-51
2022/09/28 04:56:47;;;;;;;0.88;0.50;;;20.50;44.10;;;;;;5036414;28;20025;-52
2022/09/28 04:59:13;;;;;;;0.82;0.57;;;20.50;44.10;;;;;;5055600;28;20045;-52
2022/09/28 05:01:41;;;;;;;0.40;0.40;;;20.50;44.10;;;;;;5045802;28;20021;-50
2022/09/28 05:04:27;;;;;;;0.90;0.55;;;20.50;44.10;;;;;;5050432;28;20056;-55
2022/09/28 05:07:25;;;;;;;0.93;0.60;;;20.50;44.00;;;;;;5037832;28;20345;-50
2022/09/28 05:09:51;;;;;;;0.70;0.50;;;20.50;44.00;;;;;;5049391;28;20053;-54
2022/09/28 05:12:17;;;;;;;1.00;0.60;;;20.50;44.00;;;;;;5051253;28;20020;-55
2022/09/28 05:14:43;;;;;;;2.15;0.50;;;20.50;44.00;;;;;;5047569;28;20364;-50
2022/09/28 05:17:09;;;;;;;0.68;0.43;;;20.50;44.00;;;;;;5047516;28;20105;-49
2022/09/28 05:19:54;;;;;;;1.10;0.60;;;20.50;44.00;;;;;;5050945;28;20136;-53
2022/09/28 05:22:21;;;;;;;1.48;0.68;;;20.50;44.00;;;;;;5039468;28;20436;-51
2022/09/28 05:24:46;;;;;;;0.50;0.50;;;20.50;43.90;;;;;;5033052;28;20040;-53
2022/09/28 05:27:13;;;;;;;1.20;0.60;;;20.50;43.90;;;;;;5050063;28;20444;-54
2022/09/28 05:29:39;;;;;;;1.00;0.40;;;20.50;43.90;;;;;;5040372;28;20033;-53
2022/09/28 05:32:43;;;;;;;1.85;0.70;;;20.50;43.90;;;;;;5047984;28;20071;-53
2022/09/28 05:35:32;;;;;;;0.60;0.57;;;20.50;43.90;;;;;;5024444;28;20049;-53
2022/09/28 05:38:03;;;;;;;0.95;0.57;;;20.50;43.90;;;;;;5051627;28;20207;-50
2022/09/28 05:40:29;;;;;;;0.50;0.40;;;20.50;44.00;;;;;;5046245;28;20029;-49
2022/09/28 05:42:59;;;;;;;1.15;0.70;;;20.50;44.00;;;;;;5056982;28;20060;-52
2022/09/28 05:45:25;;;;;;;0.95;0.55;;;20.50;44.00;;;;;;5049472;28;20364;-60
2022/09/28 05:47:50;;;;;;;1.42;0.55;;;20.50;43.90;;;;;;5046824;28;20033;-51
2022/09/28 05:50:19;;;;;;;1.15;0.60;;;20.50;44.10;;;;;;5049738;28;20029;-50
2022/09/28 05:52:45;;;;;;;1.15;0.70;;;20.50;44.20;;;;;;5043253;28;20045;-48
2022/09/28 05:55:12;;;;;;;0.85;0.60;;;20.50;44.10;;;;;;5040108;28;20116;-53
2022/09/28 05:57:40;;;;;;;0.85;0.50;;;20.50;44.10;;;;;;5044433;28;20175;-49
2022/09/28 06:00:08;;;;;;;0.73;0.60;;;20.50;44.10;;;;;;5048493;28;20025;-55
2022/09/28 06:02:38;;;;;;;0.85;0.63;;;20.50;44.00;;;;;;5044641;28;20044;-52
2022/09/28 06:05:05;;;;;;;0.60;0.50;;;20.50;44.00;;;;;;5049250;28;20440;-55
2022/09/28 06:07:32;;;;;;;1.08;0.60;;;20.50;43.90;;;;;;5030520;28;20026;-56
2022/09/28 06:09:58;;;;;;;1.05;0.50;;;20.50;43.90;;;;;;5046357;28;20053;-55
2022/09/28 06:12:40;;;;;;;1.15;0.57;;;20.40;43.80;;;;;;5047851;28;20025;-55
2022/09/28 06:15:12;;;;;;;1.50;0.50;;;20.40;43.80;;;;;;5040615;28;20053;-50
2022/09/28 06:17:38;;;;;;;1.30;0.63;;;20.50;43.80;;;;;;5042127;28;20033;-52
2022/09/28 06:20:33;;;;;;;2.22;0.73;;;20.50;43.90;;;;;;5048444;28;20103;-55
2022/09/28 06:23:13;;;;;;;3.17;0.80;;;20.50;43.90;;;;;;5047180;28;20059;-56
2022/09/28 06:25:39;;;;;;;1.80;0.80;;;20.40;43.80;;;;;;5036797;28;20037;-50
2022/09/28 06:28:09;;;;;;;1.42;0.60;;;20.50;43.90;;;;;;5034244;28;20026;-56
2022/09/28 06:30:37;;;;;;;2.60;0.80;;;20.50;43.80;;;;;;5033272;28;20091;-53
2022/09/28 06:33:08;;;;;;;1.80;0.75;;;20.40;43.80;;;;;;5031808;28;20460;-55
2022/09/28 06:35:35;;;;;;;1.83;0.90;;;20.50;43.80;;;;;;5051454;28;20041;-52
2022/09/28 06:38:02;;;;;;;2.15;0.75;;;20.50;43.80;;;;;;5041181;28;20028;-54
2022/09/28 06:40:28;;;;;;;1.95;0.88;;;20.40;43.70;;;;;;5046248;28;20033;-54
2022/09/28 06:42:58;;;;;;;1.38;0.70;;;20.50;43.80;;;;;;5036308;28;20025;-56
2022/09/28 06:45:56;;;;;;;1.95;0.80;;;20.50;43.80;;;;;;5013314;28;20049;-50
2022/09/28 06:48:41;;;;;;;1.70;0.82;;;20.50;43.80;;;;;;5030174;28;20052;-53
2022/09/28 06:51:11;;;;;;;2.90;0.90;;;20.50;43.80;;;;;;5045375;28;20038;-54
2022/09/28 06:54:09;;;;;;;2.90;1.10;;;20.50;43.80;;;;;;5049816;28;20432;-49
2022/09/28 06:56:52;;;;;;;1.08;0.60;;;20.50;43.80;;;;;;5057100;28;20041;-51
2022/09/28 06:59:19;;;;;;;2.97;0.75;;;20.50;43.80;;;;;;5046348;28;20033;-49
2022/09/28 07:01:45;;;;;;;1.13;0.73;;;20.50;43.90;;;;;;5047171;28;20040;-52
2022/09/28 07:04:43;;;;;;;2.20;0.93;;;20.40;43.80;;;;;;5037689;28;20056;-51
2022/09/28 07:07:10;;;;;;;2.05;0.95;;;20.50;43.90;;;;;;5038465;28;20043;-50
2022/09/28 07:09:54;;;;;;;2.17;0.98;;;20.50;44.00;;;;;;5044105;28;20142;-55
2022/09/28 07:12:29;;;;;;;1.63;0.90;;;20.50;44.00;;;;;;5051018;28;20071;-49
2022/09/28 07:15:03;;;;;;;3.58;1.05;;;20.50;44.10;;;;;;5055279;28;20028;-51
2022/09/28 07:17:30;;;;;;;3.53;1.20;;;20.50;44.10;;;;;;5052021;28;20076;-49
2022/09/28 07:19:59;;;;;;;3.85;1.17;;;20.50;44.20;;;;;;5038669;28;20037;-55
2022/09/28 07:22:25;;;;;;;2.22;0.98;;;20.50;44.30;;;;;;5068230;28;20029;-54
2022/09/28 07:24:52;;;;;;;3.05;1.10;;;20.50;44.30;;;;;;5039902;28;20029;-54
2022/09/28 07:27:38;;;;;;;3.17;1.13;;;20.50;44.30;;;;;;5041841;28;20071;-55
2022/09/28 07:30:25;;;;;;;2.53;1.08;;;20.50;44.30;;;;;;5042753;28;20048;-54
2022/09/28 07:33:04;;;;;;;3.17;1.20;;;20.50;44.30;;;;;;5039810;28;20029;-52
2022/09/28 07:35:54;;;;;;;2.95;1.30;;;20.50;44.40;;;;;;5042272;28;20025;-53
2022/09/28 07:38:22;;;;;;;3.58;1.35;;;20.50;44.40;;;;;;5038775;28;20040;-51
2022/09/28 07:43:50;;;;;;;3.63;1.17;;;20.50;44.50;;;;;;5015750;28;20060;-51
2022/09/28 07:46:16;;;;;;;3.80;1.17;;;20.50;44.50;;;;;;5028220;28;20046;-51
2022/09/28 07:48:59;;;;;;;2.40;0.90;;;20.50;44.50;;;;;;5045789;28;20029;-52
2022/09/28 07:51:33;;;;;;;;;;;20.50;45.10;;;;;;5044374;28;20017;-53
2022/09/28 07:54:23;;;;;;;4.38;1.15;;;20.50;44.50;;;;;;5037891;28;20367;-55
2022/09/28 07:57:27;;;;;;;3.97;1.23;;;20.50;44.70;;;;;;5029929;28;20125;-52
2022/09/28 08:00:09;;;;;;;1.80;0.80;;;20.50;44.70;;;;;;5007789;28;20126;-55
2022/09/28 08:02:44;;;;;;;2.72;0.85;;;20.50;44.70;;;;;;5030050;28;20133;-53
2022/09/28 08:05:13;;;;;;;2.38;0.95;;;20.50;44.80;;;;;;5044022;28;20095;-59
2022/09/28 08:07:42;;;;;;;2.70;0.80;;;20.50;44.80;;;;;;5040260;28;20330;-55
2022/09/28 08:10:11;;;;;;;2.15;0.95;;;20.50;45.10;;;;;;5022753;28;20071;-59
2022/09/28 08:13:04;;;;;;;3.28;1.10;;;20.50;45.40;;;;;;5026401;28;20107;-51
2022/09/28 08:15:59;;;;;;;3.20;1.08;;;20.60;45.70;;;;;;5043452;28;20030;-54
2022/09/28 08:18:36;;;;;;;3.60;1.48;;;20.70;45.70;;;;;;5038004;28;20026;-52
2022/09/28 08:23:49;;;;;;;2.92;1.08;;;20.80;45.30;;;;;;5041508;28;20294;-51
2022/09/28 08:26:15;;;;;;;3.25;0.75;;;20.90;45.00;;;;;;5046285;28;20039;-52
2022/09/28 08:28:43;;;;;;;2.17;0.80;;;20.90;44.90;;;;;;5043300;28;20432;-52
2022/09/28 08:31:30;;;;;;;2.70;0.70;;;20.90;44.70;;;;;;5045450;28;20037;-50
2022/09/28 08:34:14;;;;;;;2.30;0.70;;;20.90;44.70;;;;;;5039102;28;20437;-51
2022/09/28 08:37:08;;;;;;;1.80;0.60;;;20.90;44.60;;;;;;5029265;28;20096;-53
2022/09/28 08:39:40;;;;;;;1.92;0.75;;;20.90;44.60;;;;;;5040948;28;20037;-54
2022/09/28 08:42:30;;;;;;;1.98;0.82;;;21.00;44.60;;;;;;5045883;28;20488;-53
2022/09/28 08:45:27;;;;;;;2.03;0.55;;;21.00;44.50;;;;;;5035926;28;20079;-51
2022/09/28 08:48:46;;;;;;;1.48;0.50;;;20.90;44.40;;;;;;5040466;28;20043;-56
2022/09/28 08:51:26;;;;;;;1.15;0.55;;;20.90;44.40;;;;;;5030286;28;20021;-49
2022/09/28 08:54:47;;;;;;;2.25;0.70;;;20.90;44.30;;;;;;5037836;28;20040;-56
2022/09/28 08:57:28;;;;;;;0.80;0.40;;;20.90;44.30;;;;;;5054411;28;20482;-48
2022/09/28 08:59:57;;;;;;;1.83;0.60;;;20.90;44.40;;;;;;5042299;28;20037;-49
2022/09/28 09:02:35;;;;;;;1.77;0.75;;;20.90;44.50;;;;;;5026649;28;20044;-53
2022/09/28 09:05:18;;;;;;;2.20;0.80;;;20.90;44.60;;;;;;5043617;28;20474;-51
2022/09/28 09:08:04;;;;;;;3.38;0.93;;;20.90;44.70;;;;;;5045086;28;20460;-50
2022/09/28 09:10:50;;;;;;;2.38;1.00;;;20.90;44.80;;;;;;5040727;28;20140;-50
2022/09/28 09:13:39;;;;;;;3.33;1.05;;;20.90;44.90;;;;;;5045239;28;20036;-55
2022/09/28 09:16:28;;;;;;;3.58;0.98;;;20.90;44.90;;;;;;5041131;28;20025;-59
2022/09/28 09:19:42;;;;;;;2.88;1.00;;;20.90;45.00;;;;;;5041720;28;20334;-56
2022/09/28 09:22:20;;;;;;;2.58;1.00;;;20.90;45.30;;;;;;5044710;28;20057;-58
2022/09/28 09:24:55;;;;;;;2.75;1.20;;;20.90;45.50;;;;;;5047336;28;20041;-59
2022/09/28 09:27:58;;;;;;;2.45;0.85;;;20.90;45.60;;;;;;5045290;28;20087;-57
2022/09/28 09:30:28;;;;;;;1.30;0.63;;;20.90;45.70;;;;;;5040072;28;20026;-53
2022/09/28 09:33:10;;;;;;;1.85;0.80;;;20.90;45.70;;;;;;5041367;28;20025;-54
2022/09/28 09:36:17;;;;;;;2.65;0.80;;;21.00;45.70;;;;;;5037093;28;20033;-52
2022/09/28 09:39:24;;;;;;;4.03;1.00;;;21.00;45.50;;;;;;5034009;28;20071;-50
2022/09/28 09:42:25;;;;;;;1.55;0.65;;;21.00;45.40;;;;;;5038775;28;20118;-52
2022/09/28 09:45:10;;;;;;;2.90;0.73;;;20.90;45.20;;;;;;5032215;28;20051;-53
2022/09/28 09:48:28;;;;;;;2.42;0.70;;;20.90;45.00;;;;;;5028176;28;20090;-52
2022/09/28 09:51:03;;;;;;;0.93;0.52;;;20.90;44.80;;;;;;5038384;28;20037;-54
2022/09/28 09:53:37;;;;;;;1.52;0.63;;;20.90;44.70;;;;;;5039910;28;20026;-52
2022/09/28 09:56:26;;;;;;;1.30;0.47;;;20.90;44.60;;;;;;5040026;28;20040;-51
2022/09/28 09:59:14;;;;;;;1.00;0.50;;;21.00;44.50;;;;;;5037633;28;20468;-52
2022/09/28 10:02:19;;;;;;;1.48;0.55;;;21.00;44.40;;;;;;5039034;28;20022;-53
2022/09/28 10:05:01;;;;;;;1.08;0.50;;;21.00;44.20;;;;;;5037655;28;20044;-49
2022/09/28 10:07:59;;;;;;;0.70;0.50;;;21.00;44.20;;;;;;5034723;28;20448;-57
2022/09/28 10:10:48;;;;;;;0.95;0.43;;;21.00;44.20;;;;;;5034634;28;20097;-47
2022/09/28 10:13:16;;;;;;;1.42;0.60;;;21.00;44.00;;;;;;5038837;28;20039;-49
2022/09/28 10:15:46;;;;;;;1.80;0.40;;;21.00;43.90;;;;;;5032463;28;20035;-52
2022/09/28 10:18:26;;;;;;;1.45;0.60;;;21.00;43.90;;;;;;5046309;28;20034;-53
2022/09/28 10:21:14;;;;;;;1.25;0.47;;;21.00;43.90;;;;;;5039470;28;20107;-48
2022/09/28 10:24:01;;;;;;;0.90;0.40;;;21.00;43.90;;;;;;5053522;28;20037;-48
2022/09/28 10:26:36;;;;;;;1.80;0.57;;;21.00;43.90;;;;;;5043663;28;20041;-54
2022/09/28 10:29:11;;;;;;;0.77;0.55;;;21.00;43.80;;;;;;5053221;28;20086;-56
2022/09/28 10:31:44;;;;;;;1.70;0.60;;;21.00;43.60;;;;;;5052954;28;20021;-54
2022/09/28 10:34:30;;;;;;;1.27;0.52;;;21.00;43.50;;;;;;5053759;28;20101;-53
2022/09/28 10:37:05;;;;;;;0.75;0.32;;;21.00;43.40;;;;;;5037564;28;20479;-48
2022/09/28 10:39:54;;;;;;;1.38;0.30;;;21.00;43.30;;;;;;5033262;28;20421;-52
2022/09/28 10:42:24;;;;;;;0.47;0.30;;;21.00;43.20;;;;;;5033081;28;20049;-51
2022/09/28 10:45:23;;;;;;;0.93;0.43;;;21.00;43.10;;;;;;5033924;28;20037;-56
2022/09/28 10:47:50;;;;;;;0.73;0.55;;;21.00;43.10;;;;;;5037583;28;20509;-53
2022/09/28 10:50:23;;;;;;;1.13;0.30;;;21.00;43.00;;;;;;5048931;28;20379;-52
2022/09/28 10:53:19;;;;;;;0.75;0.35;;;21.00;42.90;;;;;;5052684;28;20029;-52
2022/09/28 10:56:25;;;;;;;0.40;0.30;;;21.10;42.90;;;;;;5021549;28;20039;-52
2022/09/28 10:59:01;;;;;;;1.38;0.50;;;21.10;42.90;;;;;;5035338;28;20099;-55
2022/09/28 11:01:42;;;;;;;0.95;0.28;;;21.00;42.80;;;;;;5035944;28;20448;-55
2022/09/28 11:04:19;;;;;;;0.55;0.35;;;21.00;42.80;;;;;;5032013;28;20029;-53
2022/09/28 11:06:46;;;;;;;2.05;0.50;;;21.00;42.80;;;;;;5031215;28;20037;-53
2022/09/28 11:09:29;;;;;;;0.28;0.20;;;21.10;42.80;;;;;;5031024;28;20053;-53
2022/09/28 11:11:59;;;;;;;0.47;0.20;;;21.10;42.70;;;;;;5031516;28;20550;-49
2022/09/28 11:14:42;;;;;;;1.48;0.40;;;21.10;42.70;;;;;;5050424;28;20039;-51
2022/09/28 11:17:27;;;;;;;0.40;0.30;;;21.10;42.70;;;;;;5047044;28;20457;-52
2022/09/28 11:19:55;;;;;;;1.02;0.45;;;21.10;42.70;;;;;;5029528;28;20096;-53
2022/09/28 11:22:29;;;;;;;1.35;0.40;;;21.10;42.70;;;;;;5043766;28;20415;-56
2022/09/28 11:25:18;;;;;;;0.73;0.20;;;21.10;42.80;;;;;;5056276;28;20461;-56
2022/09/28 11:27:51;;;;;;;0.85;0.40;;;21.10;42.80;;;;;;5041742;28;20037;-56
2022/09/28 11:30:33;;;;;;;2.60;0.40;;;21.10;42.80;;;;;;5031506;28;20036;-56
2022/09/28 11:33:31;;;;;;;0.68;0.40;;;21.10;43.00;;;;;;5025570;28;20040;-54
2022/09/28 11:36:42;;;;;;;1.48;0.40;;;21.10;43.40;;;;;;5034687;28;20099;-58
2022/09/28 11:39:21;;;;;;;2.85;0.40;;;21.10;43.60;;;;;;5046227;28;20021;-62
2022/09/28 11:42:16;;;;;;;0.55;0.22;;;21.20;43.90;;;;;;5033694;28;20029;-55
2022/09/28 11:44:46;;;;;;;0.40;0.30;;;21.20;43.90;;;;;;5052240;28;20116;-57
2022/09/28 11:47:41;;;;;;;1.08;0.50;;;21.20;43.90;;;;;;5038449;28;20123;-60
2022/09/28 11:50:27;;;;;;;1.20;0.40;;;21.20;43.90;;;;;;5044949;28;20032;-55
2022/09/28 11:53:18;;;;;;;0.77;0.30;;;21.20;43.90;;;;;;5045511;28;20021;-56
2022/09/28 11:56:25;;;;;;;1.27;0.30;;;21.30;43.90;;;;;;5049152;28;20041;-59
2022/09/28 11:58:57;;;;;;;0.75;0.30;;;21.30;44.00;;;;;;5041856;28;20112;-53
2022/09/28 12:01:50;;;;;;;0.32;0.20;;;21.30;44.00;;;;;;5042927;28;20025;-56
2022/09/28 12:04:34;;;;;;;0.90;0.50;;;21.30;44.00;;;;;;5042510;28;20502;-57
2022/09/28 12:07:14;;;;;;;1.02;0.10;;;21.30;43.90;;;;;;5037889;28;20041;-52
2022/09/28 12:09:49;;;;;;;0.63;0.30;;;21.30;43.80;;;;;;5042912;28;20061;-56
2022/09/28 12:12:39;;;;;;;1.60;0.40;;;21.30;43.70;;;;;;5042907;28;20038;-58
2022/09/28 12:15:18;;;;;;;1.20;0.40;;;21.30;43.50;;;;;;5033682;28;20025;-53
2022/09/28 12:17:59;;;;;;;0.95;0.40;;;21.40;43.70;;;;;;5044118;28;20068;-59
2022/09/28 12:20:38;;;;;;;0.63;0.30;;;21.40;43.90;;;;;;5039820;28;20100;-56
2022/09/28 12:23:12;;;;;;;1.15;0.40;;;21.40;44.00;;;;;;5043536;28;20391;-56
2022/09/28 12:25:58;;;;;;;0.68;0.50;;;21.40;44.10;;;;;;5044356;28;20025;-55
2022/09/28 12:28:38;;;;;;;1.02;0.40;;;21.40;44.10;;;;;;5040143;28;20040;-48
2022/09/28 12:31:46;;;;;;;0.80;0.40;;;21.50;44.20;;;;;;5047747;28;20052;-54
2022/09/28 12:34:12;;;;;;;1.23;0.30;;;21.50;44.00;;;;;;5022928;28;20365;-53
2022/09/28 12:37:02;;;;;;;0.52;0.30;;;21.50;44.00;;;;;;5046170;28;20025;-49
2022/09/28 12:40:05;;;;;;;1.23;0.30;;;21.50;43.90;;;;;;5034685;28;20087;-51
2022/09/28 12:43:08;;;;;;;1.65;0.30;;;21.50;43.70;;;;;;5038684;28;20037;-50
2022/09/28 12:46:03;;;;;;;0.70;0.40;;;21.50;43.60;;;;;;5047097;28;20124;-51
2022/09/28 12:48:36;;;;;;;0.60;0.30;;;21.60;43.40;;;;;;5046393;28;20028;-51
2022/09/28 12:51:34;;;;;;;0.30;0.30;;;21.60;43.20;;;;;;5043148;28;20025;-53
2022/09/28 12:54:13;;;;;;;0.47;0.20;;;21.60;42.90;;;;;;5043252;28;20033;-48
2022/09/28 12:57:10;;;;;;;0.30;0.28;;;21.60;42.70;;;;;;5041670;28;20025;-53
2022/09/28 12:59:51;;;;;;;0.77;0.30;;;21.60;42.50;;;;;;5043532;28;20330;-46
2022/09/28 13:02:25;;;;;;;0.32;0.30;;;21.60;42.50;;;;;;5036349;28;20076;-49
2022/09/28 13:05:03;;;;;;;;;;;21.60;42.50;;;;;;5047305;28;20060;-49
2022/09/28 13:07:41;;;;;;;0.57;0.30;;;21.60;42.40;;;;;;5040610;28;19913;-51
2022/09/28 13:10:39;;;;;;;0.40;0.20;;;21.60;42.30;;;;;;5035177;28;20133;-48
2022/09/28 13:13:27;;;;;;;0.35;0.20;;;21.60;42.10;;;;;;5035250;28;20064;-47
2022/09/28 13:16:17;;;;;;;0.25;0.20;;;21.60;41.90;;;;;;5042925;28;20043;-51
2022/09/28 13:19:11;;;;;;;0.55;0.30;;;21.60;41.80;;;;;;5042032;28;20029;-48
2022/09/28 13:21:44;;;;;;;0.43;0.20;;;21.60;41.60;;;;;;5040981;28;20040;-49
2022/09/28 13:24:19;;;;;;;0.68;0.40;;;21.60;41.80;;;;;;5042761;28;20048;-48
2022/09/28 13:26:47;;;;;;;0.40;0.30;;;21.60;42.10;;;;;;5043471;28;20033;-53
2022/09/28 13:29:16;;;;;;;0.65;0.30;;;21.60;42.20;;;;;;5044422;28;20048;-52
2022/09/28 13:31:49;;;;;;;0.98;0.30;;;21.60;42.40;;;;;;5037528;28;20037;-53
2022/09/28 13:34:23;;;;;;;0.77;0.30;;;21.60;42.40;;;;;;5041839;28;20021;-51
2022/09/28 13:37:08;;;;;;;;;;;21.60;42.50;;;;;;5037789;28;20029;-50
2022/09/28 13:39:51;;;;;;;0.40;0.30;;;21.60;42.50;;;;;;5030629;28;19952;-50
2022/09/28 13:42:38;;;;;;;1.25;0.47;;;21.60;42.50;;;;;;5034337;28;20445;-49
2022/09/28 13:45:21;;;;;;;0.98;0.30;;;21.60;42.50;;;;;;5014837;28;20084;-51
2022/09/28 13:47:53;;;;;;;0.75;0.32;;;21.60;42.60;;;;;;5042289;28;20310;-49